Time;durP1;ratioP1;P1;durP2;ratioP2;P2;SDS_P1;SDS_P2;PMS_P1;PMS_P2;Temp;Humidity;BMP_temperature;BMP_pressure;BME280_temperature;BME280_humidity;BME280_pressure;Samples;Min_cycle;Max_cycle;Signal;HPM_P1;HPM_P2
2022/09/16 00:00:14;;;;;;;18.70;10.03;;;;;;;;;;5047460;28;46432;-64
2022/09/16 00:02:40;;;;;;;17.17;10.23;;;;;;;;;;5047983;28;46523;-64
2022/09/16 00:05:06;;;;;;;15.43;10.63;;;14.00;67.10;;;;;;5048250;28;47276;-64
2022/09/16 00:07:32;;;;;;;20.63;9.53;;;;;;;;;;5049703;28;46345;-64
2022/09/16 00:09:58;;;;;;;22.30;10.47;;;;;;;;;;5048136;28;46417;-63
2022/09/16 00:12:24;;;;;;;16.60;9.97;;;14.00;67.50;;;;;;5051964;28;46844;-63
2022/09/16 00:14:54;;;;;;;19.50;10.67;;;13.90;67.20;;;;;;5046299;28;47143;-64
2022/09/16 00:17:20;;;;;;;17.13;10.47;;;14.10;77.50;;;;;;5046965;28;46461;-63
2022/09/16 00:19:46;;;;;;;14.97;9.30;;;14.00;77.90;;;;;;5055392;28;46590;-63
2022/09/16 00:22:11;;;;;;;19.37;11.20;;;14.00;70.60;;;;;;5045578;28;46497;-64
2022/09/16 00:24:37;;;;;;;23.67;11.30;;;13.80;68.60;;;;;;5054251;28;48100;-63
2022/09/16 00:27:04;;;;;;;22.30;10.63;;;;;;;;;;5047951;28;46446;-63
2022/09/16 00:29:30;;;;;;;21.10;11.57;;;;;;;;;;5050715;28;46459;-64
2022/09/16 00:31:56;;;;;;;20.20;12.27;;;;;;;;;;5045637;28;46504;-64
2022/09/16 00:34:22;;;;;;;16.97;10.60;;;13.80;68.50;;;;;;5047753;28;46545;-64
2022/09/16 00:36:47;;;;;;;21.00;11.40;;;13.80;70.00;;;;;;5046963;28;46464;-64
2022/09/16 00:39:13;;;;;;;20.73;11.20;;;;;;;;;;5045905;28;45783;-62
2022/09/16 00:41:39;;;;;;;16.93;10.20;;;;;;;;;;5048659;28;46596;-63
2022/09/16 00:44:26;;;;;;;20.10;11.37;;;13.60;67.30;;;;;;5048417;28;47040;-63
2022/09/16 00:46:53;;;;;;;16.57;10.40;;;13.50;77.90;;;;;;5048601;28;46409;-64
2022/09/16 00:49:29;;;;;;;17.70;10.70;;;13.50;67.40;;;;;;5031164;28;46465;-63
2022/09/16 00:52:01;;;;;;;17.20;11.50;;;13.40;78.10;;;;;;5051289;28;46563;-64
2022/09/16 00:54:28;;;;;;;17.50;11.50;;;13.70;77.80;;;;;;5055288;28;46302;-64
2022/09/16 00:56:57;;;;;;;20.50;12.00;;;13.60;71.00;;;;;;5046849;28;46597;-65
2022/09/16 00:59:32;;;;;;;18.30;11.37;;;13.40;73.30;;;;;;5054705;28;46354;-65
2022/09/16 01:02:02;;;;;;;16.30;10.97;;;13.60;66.70;;;;;;5046879;28;46423;-64
2022/09/16 01:04:35;;;;;;;19.73;11.07;;;13.70;66.90;;;;;;5048410;28;46665;-64
2022/09/16 01:07:01;;;;;;;17.77;11.37;;;13.40;68.50;;;;;;5066361;27;46538;-64
2022/09/16 01:09:28;;;;;;;18.97;12.43;;;;;;;;;;5047694;28;46484;-64
2022/09/16 01:11:54;;;;;;;19.37;12.20;;;;;;;;;;5050304;28;46516;-63
2022/09/16 01:17:43;;;;;;;22.83;11.90;;;13.70;67.70;;;;;;5051446;28;46463;-64
2022/09/16 01:20:23;;;;;;;19.57;11.20;;;13.90;66.40;;;;;;5049474;28;46172;-64
2022/09/16 01:23:10;;;;;;;24.17;13.23;;;14.00;66.00;;;;;;5050035;28;46386;-64
2022/09/16 01:26:01;;;;;;;28.80;13.20;;;14.10;65.80;;;;;;5052681;28;46136;-65
2022/09/16 01:28:51;;;;;;;27.10;11.97;;;14.20;65.40;;;;;;5050260;28;46361;-64
2022/09/16 01:31:17;;;;;;;19.40;13.00;;;;;;;;;;5049846;28;46536;-64
2022/09/16 01:33:43;;;;;;;17.90;11.53;;;;;;;;;;5049344;28;46317;-63
2022/09/16 01:36:30;;;;;;;19.50;12.70;;;14.40;65.20;;;;;;5046258;28;47198;-63
2022/09/16 01:39:06;;;;;;;30.13;13.83;;;14.40;65.10;;;;;;5054327;28;47272;-63
2022/09/16 01:42:00;;;;;;;21.87;13.43;;;14.30;67.40;;;;;;5048892;28;46461;-64
2022/09/16 01:44:53;;;;;;;23.63;12.30;;;14.50;65.10;;;;;;5044898;28;46420;-64
2022/09/16 01:47:48;;;;;;;22.90;12.43;;;14.50;65.00;;;;;;5052220;28;46602;-64
2022/09/16 01:50:31;;;;;;;22.00;12.57;;;14.50;65.10;;;;;;5049267;28;46509;-64
2022/09/16 01:52:57;;;;;;;19.10;12.60;;;;;;;;;;5057791;28;46573;-64
2022/09/16 01:55:32;;;;;;;18.80;13.03;;;14.30;70.60;;;;;;5048596;28;45889;-65
2022/09/16 01:58:38;;;;;;;21.53;12.07;;;14.50;65.30;;;;;;5051236;28;46435;-64
2022/09/16 02:01:10;;;;;;;21.80;12.30;;;14.10;72.30;;;;;;5046489;28;46343;-63
2022/09/16 02:03:41;;;;;;;23.03;12.10;;;14.30;74.40;;;;;;5056653;28;46638;-63
2022/09/16 02:06:17;;;;;;;25.07;12.37;;;14.50;65.60;;;;;;5048874;28;46444;-64
2022/09/16 02:08:49;;;;;;;18.57;12.23;;;14.50;66.40;;;;;;5050033;28;45975;-63
2022/09/16 02:11:19;;;;;;;20.30;12.13;;;14.50;65.50;;;;;;5048918;28;46455;-63
2022/09/16 02:13:53;;;;;;;17.43;11.33;;;14.40;73.50;;;;;;5033933;28;46745;-63
2022/09/16 02:16:29;;;;;;;21.27;11.63;;;14.40;67.90;;;;;;5050164;28;46456;-64
2022/09/16 02:19:01;;;;;;;19.97;11.70;;;14.20;66.30;;;;;;5046674;28;48048;-64
2022/09/16 02:21:28;;;;;;;21.87;11.60;;;14.10;66.60;;;;;;5048714;28;46649;-64
2022/09/16 02:24:00;;;;;;;20.50;12.07;;;14.00;67.20;;;;;;5047732;28;46502;-64
2022/09/16 02:26:35;;;;;;;18.33;11.70;;;13.90;67.00;;;;;;5057539;28;46477;-64
2022/09/16 02:29:07;;;;;;;17.27;11.03;;;13.70;67.30;;;;;;5045816;28;47292;-64
2022/09/16 02:31:36;;;;;;;16.77;11.17;;;13.60;67.90;;;;;;5048317;28;46598;-64
2022/09/16 02:34:53;;;;;;;18.07;11.37;;;13.40;68.20;;;;;;5045920;28;46456;-64
2022/09/16 02:37:27;;;;;;;16.47;11.27;;;13.10;69.00;;;;;;5032083;28;47967;-63
2022/09/16 02:40:00;;;;;;;17.57;10.90;;;13.20;69.10;;;;;;5047217;28;46475;-64
2022/09/16 02:42:27;;;;;;;20.30;11.33;;;;;;;;;;5049405;28;46444;-64
2022/09/16 02:44:54;;;;;;;18.83;11.33;;;;;;;;;;5044573;28;46405;-63
2022/09/16 02:47:31;;;;;;;19.60;10.80;;;12.90;79.90;;;;;;5047599;28;45864;-64
2022/09/16 02:50:05;;;;;;;16.97;10.43;;;12.80;69.80;;;;;;5047545;28;48043;-64
2022/09/16 02:53:04;;;;;;;19.50;12.13;;;12.60;69.60;;;;;;5049076;28;46425;-64
2022/09/16 02:55:36;;;;;;;16.53;10.87;;;12.70;69.70;;;;;;5048206;28;46492;-64
2022/09/16 02:58:06;;;;;;;21.60;11.90;;;12.50;69.70;;;;;;5046804;28;46514;-63
2022/09/16 03:00:36;;;;;;;21.97;11.97;;;12.60;69.80;;;;;;5051328;28;46204;-63
2022/09/16 03:03:02;;;;;;;23.47;13.40;;;;;;;;;;5045193;28;46417;-64
2022/09/16 03:05:28;;;;;;;20.80;13.30;;;12.40;69.80;;;;;;5047859;28;46459;-64
2022/09/16 03:07:55;;;;;;;23.53;12.10;;;12.50;69.50;;;;;;5050014;28;46439;-64
2022/09/16 03:10:24;;;;;;;25.30;13.83;;;12.40;69.40;;;;;;5049724;28;46697;-63
2022/09/16 03:13:08;;;;;;;22.73;12.90;;;12.50;69.40;;;;;;5047088;28;46401;-63
2022/09/16 03:15:55;;;;;;;21.80;11.57;;;12.10;78.90;;;;;;5051299;28;45925;-64
2022/09/16 03:18:49;;;;;;;19.63;11.53;;;12.50;69.00;;;;;;5058502;28;46631;-65
2022/09/16 03:21:52;;;;;;;24.53;13.10;;;12.60;68.80;;;;;;5046242;28;48057;-66
2022/09/16 03:24:56;;;;;;;18.60;12.27;;;12.50;68.50;;;;;;5038367;28;45890;-66
2022/09/16 03:27:50;;;;;;;19.60;12.47;;;12.60;68.30;;;;;;5039798;28;46418;-66
2022/09/16 03:30:16;;;;;;;26.27;12.20;;;;;;;;;;5047358;28;46372;-65
2022/09/16 03:32:42;;;;;;;24.30;12.40;;;;;;;;;;5055652;28;48305;-65
2022/09/16 03:35:18;;;;;;;26.77;11.50;;;12.60;68.40;;;;;;5046988;28;46652;-65
2022/09/16 03:37:45;;;;;;;21.00;12.20;;;12.50;68.40;;;;;;5048959;28;46476;-65
2022/09/16 03:40:16;;;;;;;25.83;12.40;;;12.50;68.50;;;;;;5052934;28;46424;-65
2022/09/16 03:42:43;;;;;;;20.23;11.80;;;12.60;76.50;;;;;;5047219;28;48401;-66
2022/09/16 03:45:20;;;;;;;24.50;12.90;;;12.60;68.30;;;;;;5049324;28;45845;-65
2022/09/16 03:47:48;;;;;;;23.07;12.87;;;12.50;76.60;;;;;;5048049;28;46677;-66
2022/09/16 03:50:14;;;;;;;21.13;11.50;;;;;;;;;;5048079;28;46474;-66
2022/09/16 03:52:40;;;;;;;21.47;11.83;;;12.90;71.10;;;;;;5047862;28;46411;-65
2022/09/16 03:55:12;;;;;;;24.33;12.37;;;12.80;67.80;;;;;;5050021;28;46643;-66
2022/09/16 03:57:38;;;;;;;22.10;11.30;;;;;;;;;;5051166;28;45787;-65
2022/09/16 04:00:06;;;;;;;26.07;13.10;;;12.60;75.20;;;;;;5050343;28;46807;-66
2022/09/16 04:02:33;;;;;;;19.30;12.00;;;;;;;;;;5044741;28;46897;-66
2022/09/16 04:04:59;;;;;;;22.77;12.07;;;;;;;;;;5052591;28;46618;-65
2022/09/16 04:07:25;;;;;;;20.87;12.00;;;;;;;;;;5054892;28;46352;-65
2022/09/16 04:09:51;;;;;;;17.83;11.63;;;;;;;;;;5048253;28;46398;-65
2022/09/16 04:12:17;;;;;;;17.00;11.57;;;;;;;;;;5050705;28;46771;-65
2022/09/16 04:14:43;;;;;;;17.70;11.13;;;;;;;;;;5052336;27;46410;-65
2022/09/16 04:17:08;;;;;;;18.27;11.63;;;;;;;;;;5046622;28;46611;-65
2022/09/16 04:19:34;;;;;;;20.93;12.83;;;;;;;;;;5048529;28;46519;-66
2022/09/16 04:22:00;;;;;;;22.13;13.67;;;;;;;;;;5047628;28;46633;-67
2022/09/16 04:24:26;;;;;;;19.40;13.10;;;;;;;;;;5050143;28;46413;-67
2022/09/16 04:26:52;;;;;;;23.10;13.30;;;;;;;;;;5046071;28;46444;-66
2022/09/16 04:29:18;;;;;;;21.80;12.20;;;;;;;;;;5049311;28;46702;-65
2022/09/16 04:31:44;;;;;;;19.37;11.60;;;;;;;;;;5044419;28;48108;-66
2022/09/16 04:34:10;;;;;;;20.17;12.00;;;;;;;;;;5051113;28;46284;-65
2022/09/16 04:36:36;;;;;;;18.90;10.90;;;;;;;;;;5057334;28;46388;-66
2022/09/16 04:39:02;;;;;;;20.93;11.73;;;13.10;71.90;;;;;;5045936;28;46343;-66
2022/09/16 04:41:28;;;;;;;17.73;11.83;;;;;;;;;;5049681;28;46548;-66
2022/09/16 04:43:56;;;;;;;20.80;10.70;;;12.90;67.00;;;;;;5053188;28;46284;-66
2022/09/16 04:46:23;;;;;;;18.33;12.17;;;12.90;66.70;;;;;;5049591;28;46370;-66
2022/09/16 04:48:50;;;;;;;19.00;12.30;;;13.20;76.60;;;;;;5050787;28;46337;-66
2022/09/16 04:51:18;;;;;;;20.23;12.00;;;13.30;66.50;;;;;;5050930;28;46660;-68
2022/09/16 04:53:44;;;;;;;19.43;10.80;;;13.20;69.10;;;;;;5047293;28;46443;-66
2022/09/16 04:56:14;;;;;;;22.67;12.57;;;13.20;68.60;;;;;;5050460;28;47055;-66
2022/09/16 04:58:48;;;;;;;19.00;11.80;;;13.60;75.20;;;;;;5050802;28;46363;-66
2022/09/16 05:01:22;;;;;;;23.80;11.43;;;13.40;66.50;;;;;;5051868;28;46690;-66
2022/09/16 05:03:51;;;;;;;24.27;12.20;;;13.60;69.00;;;;;;5056150;28;45992;-66
2022/09/16 05:06:23;;;;;;;18.77;11.80;;;13.50;66.90;;;;;;5053722;28;46381;-66
2022/09/16 05:08:50;;;;;;;16.90;11.53;;;13.40;74.80;;;;;;5050936;28;46399;-66
2022/09/16 05:11:24;;;;;;;18.73;11.03;;;13.50;66.70;;;;;;5048653;28;46533;-66
2022/09/16 05:13:50;;;;;;;22.33;11.70;;;;;;;;;;5050982;28;46267;-66
2022/09/16 05:16:18;;;;;;;17.17;10.73;;;13.40;66.80;;;;;;5047746;28;46454;-67
2022/09/16 05:18:45;;;;;;;16.27;10.70;;;13.60;66.80;;;;;;5054984;28;46365;-66
2022/09/16 05:21:13;;;;;;;22.00;10.73;;;13.60;66.80;;;;;;5048990;28;46276;-67
2022/09/16 05:23:39;;;;;;;17.37;11.50;;;13.60;68.80;;;;;;5048242;28;46353;-66
2022/09/16 05:26:11;;;;;;;19.53;11.10;;;13.70;66.10;;;;;;5053501;28;46434;-66
2022/09/16 05:28:37;;;;;;;22.70;12.43;;;13.80;65.90;;;;;;5049897;28;46349;-66
2022/09/16 05:31:14;;;;;;;20.13;10.83;;;13.70;76.30;;;;;;5051272;28;46433;-66
2022/09/16 05:33:41;;;;;;;19.67;10.33;;;13.90;65.70;;;;;;5052371;28;46504;-66
2022/09/16 05:36:12;;;;;;;18.90;10.77;;;14.00;65.80;;;;;;5053253;28;46440;-66
2022/09/16 05:38:38;;;;;;;20.63;11.10;;;;;;;;;;5051206;28;45834;-66
2022/09/16 05:41:05;;;;;;;18.73;10.30;;;14.10;66.40;;;;;;5049254;28;46573;-65
2022/09/16 05:43:31;;;;;;;20.83;11.73;;;13.40;65.80;;;;;;5047115;28;46596;-66
2022/09/16 05:45:57;;;;;;;21.90;11.60;;;;;;;;;;5036831;28;45858;-65
2022/09/16 05:48:24;;;;;;;18.90;10.53;;;;;;;;;;5046148;28;46505;-65
2022/09/16 05:50:57;;;;;;;18.37;10.30;;;14.00;66.40;;;;;;5049151;28;46543;-66
2022/09/16 05:53:23;;;;;;;17.83;11.47;;;14.00;74.90;;;;;;5047449;28;46448;-65
2022/09/16 05:56:07;;;;;;;18.17;11.80;;;14.10;66.20;;;;;;5051761;28;46360;-64
2022/09/16 05:58:35;;;;;;;20.13;11.50;;;14.30;69.30;;;;;;5060017;28;46455;-66
2022/09/16 06:01:02;;;;;;;18.80;11.30;;;14.20;66.10;;;;;;5065415;28;46586;-66
2022/09/16 06:03:28;;;;;;;16.23;11.00;;;14.20;66.10;;;;;;5066607;27;46424;-66
2022/09/16 06:06:00;;;;;;;17.43;10.40;;;14.30;65.90;;;;;;5062953;28;46564;-66
2022/09/16 06:08:27;;;;;;;18.00;10.13;;;14.40;70.50;;;;;;5064641;28;46955;-66
2022/09/16 06:10:53;;;;;;;19.30;9.90;;;;;;;;;;5063014;28;47152;-66
2022/09/16 06:13:19;;;;;;;18.13;11.53;;;;;;;;;;5063197;28;46435;-65
2022/09/16 06:15:55;;;;;;;12.83;9.77;;;14.50;65.40;;;;;;5067059;28;45959;-64
2022/09/16 06:18:23;;;;;;;14.13;10.13;;;14.60;65.30;;;;;;5064759;28;46160;-64
2022/09/16 06:20:49;;;;;;;17.10;10.17;;;;;;;;;;5064882;28;47116;-65
2022/09/16 06:23:15;;;;;;;17.13;9.50;;;14.50;65.20;;;;;;5067325;28;46394;-63
2022/09/16 06:25:41;;;;;;;16.23;10.83;;;;;;;;;;5077620;28;46395;-63
2022/09/16 06:28:10;;;;;;;22.63;10.47;;;14.70;65.30;;;;;;5074902;27;46472;-64
2022/09/16 06:30:36;;;;;;;14.13;9.90;;;;;;;;;;5067679;27;47452;-64
2022/09/16 06:33:02;;;;;;;15.13;10.40;;;;;;;;;;5067130;28;46200;-65
2022/09/16 06:35:29;;;;;;;16.80;10.80;;;14.30;69.10;;;;;;5065177;28;46463;-64
2022/09/16 06:37:55;;;;;;;17.20;10.20;;;;;;;;;;5062148;28;46354;-64
2022/09/16 06:40:21;;;;;;;18.60;11.00;;;;;;;;;;5068785;27;47293;-63
2022/09/16 06:42:47;;;;;;;15.63;10.07;;;;;;;;;;5067275;28;46422;-64
2022/09/16 06:45:13;;;;;;;17.43;10.80;;;14.80;65.10;;;;;;5064111;28;46664;-64
2022/09/16 06:47:39;;;;;;;16.93;10.90;;;;;;;;;;5066925;27;46520;-63
2022/09/16 06:50:06;;;;;;;21.90;10.30;;;;;;;;;;5067897;28;47226;-63
2022/09/16 06:52:32;;;;;;;19.47;11.20;;;;;;;;;;5064697;28;46382;-65
2022/09/16 06:54:58;;;;;;;20.83;12.33;;;;;;;;;;5063258;28;46410;-64
2022/09/16 06:57:24;;;;;;;25.93;17.83;;;;;;;;;;5064373;28;46442;-64
2022/09/16 06:59:50;;;;;;;57.13;22.07;;;;;;;;;;5064556;27;46473;-65
2022/09/16 07:02:18;;;;;;;19.57;11.07;;;15.40;63.10;;;;;;5065325;28;46464;-64
2022/09/16 07:04:45;;;;;;;17.77;11.97;;;15.30;65.90;;;;;;5061829;27;46515;-65
2022/09/16 07:07:11;;;;;;;16.33;10.30;;;15.50;63.10;;;;;;5066588;28;46483;-66
2022/09/16 07:09:38;;;;;;;17.13;11.30;;;15.40;66.40;;;;;;5048675;28;46857;-65
2022/09/16 07:12:05;;;;;;;18.50;11.10;;;15.70;62.90;;;;;;5063559;28;46423;-65
2022/09/16 07:14:33;;;;;;;12.40;9.27;;;15.80;63.30;;;;;;5062825;28;46425;-65
2022/09/16 07:17:00;;;;;;;15.53;10.40;;;15.80;62.30;;;;;;5067048;28;46358;-65
2022/09/16 07:19:27;;;;;;;20.53;10.93;;;16.10;72.60;;;;;;5067251;28;46426;-64
2022/09/16 07:21:53;;;;;;;14.87;10.50;;;15.90;61.90;;;;;;5067505;28;46507;-64
2022/09/16 07:24:19;;;;;;;17.05;11.10;;;;;;;;;;5067366;28;46781;-64
2022/09/16 07:26:46;;;;;;;19.23;11.27;;;16.00;61.80;;;;;;5068017;27;46349;-64
2022/09/16 07:29:16;;;;;;;16.23;10.73;;;16.00;61.90;;;;;;5063614;28;47982;-65
2022/09/16 07:31:42;;;;;;;14.73;8.90;;;;;;;;;;5073379;28;46238;-65
2022/09/16 07:34:10;;;;;;;19.70;8.83;;;16.30;62.50;;;;;;5067759;28;46458;-64
2022/09/16 07:36:46;;;;;;;14.87;9.23;;;16.30;67.90;;;;;;5060921;28;46512;-65
2022/09/16 07:39:14;;;;;;;15.30;9.07;;;16.00;64.20;;;;;;5065529;28;46448;-65
2022/09/16 07:41:41;;;;;;;13.10;9.40;;;15.90;63.40;;;;;;5058755;28;46398;-65
2022/09/16 07:44:14;;;;;;;11.90;8.77;;;16.20;61.90;;;;;;5063563;27;46386;-66
2022/09/16 07:46:40;;;;;;;12.80;9.07;;;16.00;64.10;;;;;;5057401;28;46847;-65
2022/09/16 07:49:07;;;;;;;14.80;9.37;;;16.00;67.30;;;;;;5064689;28;46440;-67
2022/09/16 07:51:34;;;;;;;15.20;8.40;;;16.10;62.00;;;;;;5051819;27;45822;-64
2022/09/16 07:54:05;;;;;;;13.73;8.80;;;16.30;65.60;;;;;;5048578;28;46509;-65
2022/09/16 07:56:33;;;;;;;12.23;8.17;;;16.30;61.40;;;;;;5049735;28;46897;-65
2022/09/16 07:59:00;;;;;;;15.57;9.07;;;16.70;60.40;;;;;;5047068;28;46533;-65
2022/09/16 08:01:26;;;;;;;16.70;8.20;;;17.20;60.80;;;;;;5051266;28;46825;-64
2022/09/16 08:03:52;;;;;;;12.33;8.67;;;17.30;59.10;;;;;;5046318;28;46442;-64
2022/09/16 08:06:20;;;;;;;17.87;8.80;;;17.30;58.00;;;;;;5047641;28;45882;-66
2022/09/16 08:08:51;;;;;;;16.07;8.70;;;17.60;57.70;;;;;;5047537;28;47260;-65
2022/09/16 08:11:20;;;;;;;14.47;9.10;;;17.70;57.70;;;;;;5048447;28;46430;-65
2022/09/16 08:13:51;;;;;;;16.40;9.30;;;17.70;57.70;;;;;;5056018;28;46695;-64
2022/09/16 08:16:23;;;;;;;11.77;8.80;;;17.70;57.70;;;;;;5044808;28;46639;-64
2022/09/16 08:18:57;;;;;;;15.93;9.10;;;17.60;57.70;;;;;;5040647;28;46390;-63
2022/09/16 08:21:29;;;;;;;13.20;8.23;;;17.50;57.50;;;;;;5049935;28;45878;-63
2022/09/16 08:24:00;;;;;;;13.47;8.30;;;17.40;57.40;;;;;;5049905;28;45796;-64
2022/09/16 08:26:28;;;;;;;17.80;8.70;;;17.30;58.20;;;;;;5055909;28;46800;-64
2022/09/16 08:28:59;;;;;;;23.37;8.80;;;17.30;59.70;;;;;;5045099;28;47143;-64
2022/09/16 08:31:29;;;;;;;17.77;9.00;;;17.20;58.50;;;;;;5049129;28;46670;-65
2022/09/16 08:34:00;;;;;;;15.53;7.83;;;17.10;58.50;;;;;;5055904;28;46454;-63
2022/09/16 08:36:32;;;;;;;12.47;9.03;;;17.10;58.80;;;;;;5052547;28;46475;-66
2022/09/16 08:39:02;;;;;;;29.27;9.30;;;16.80;68.30;;;;;;5049619;28;47207;-66
2022/09/16 08:42:00;;;;;;;19.40;8.67;;;17.00;68.30;;;;;;5045127;28;45997;-66
2022/09/16 08:44:59;;;;;;;13.80;9.23;;;16.90;59.20;;;;;;5045493;28;46406;-66
2022/09/16 08:47:53;;;;;;;12.70;8.83;;;16.70;59.20;;;;;;5035702;28;46247;-66
2022/09/16 08:50:28;;;;;;;20.43;9.80;;;16.70;59.40;;;;;;5046199;28;47642;-65
2022/09/16 08:52:58;;;;;;;21.80;8.53;;;17.10;68.90;;;;;;5052052;28;46530;-66
2022/09/16 08:55:34;;;;;;;10.63;7.93;;;16.70;62.50;;;;;;5058764;28;45744;-66
2022/09/16 08:58:14;;;;;;;15.40;8.80;;;16.90;58.60;;;;;;5048219;28;45910;-67
2022/09/16 09:00:41;;;;;;;13.93;8.40;;;16.80;58.60;;;;;;5045800;28;46429;-66
2022/09/16 09:03:20;;;;;;;18.97;9.50;;;16.90;68.60;;;;;;5045390;28;46522;-66
2022/09/16 09:05:57;;;;;;;14.60;8.50;;;16.80;61.90;;;;;;5046119;28;46393;-66
2022/09/16 09:08:51;;;;;;;14.60;8.20;;;16.60;66.70;;;;;;5045913;28;45917;-66
2022/09/16 09:11:17;;;;;;;14.73;8.67;;;;;;;;;;5043310;28;47400;-66
2022/09/16 09:13:49;;;;;;;16.90;9.73;;;16.50;59.10;;;;;;5047263;28;46513;-66
2022/09/16 09:16:41;;;;;;;19.13;8.87;;;16.50;59.30;;;;;;5044678;28;46382;-64
2022/09/16 09:19:30;;;;;;;19.30;8.57;;;16.30;62.10;;;;;;5045366;28;46509;-65
2022/09/16 09:22:05;;;;;;;13.23;8.20;;;16.40;68.80;;;;;;5055341;28;47041;-63
2022/09/16 09:24:51;;;;;;;14.50;9.30;;;16.40;59.10;;;;;;5050510;28;46302;-65
2022/09/16 09:27:48;;;;;;;18.33;9.20;;;16.30;59.30;;;;;;5045864;28;46431;-65
2022/09/16 09:30:25;;;;;;;21.87;9.53;;;16.30;59.00;;;;;;5053891;28;46348;-65
2022/09/16 09:33:02;;;;;;;14.37;9.53;;;16.20;64.10;;;;;;5059915;28;46325;-64
2022/09/16 09:35:34;;;;;;;16.30;10.93;;;16.20;61.30;;;;;;5061368;28;46667;-65
2022/09/16 09:38:00;;;;;;;21.00;9.97;;;;;;;;;;5060988;28;46312;-65
2022/09/16 09:41:07;;;;;;;15.90;9.27;;;16.50;58.70;;;;;;5065243;28;46562;-66
2022/09/16 09:43:46;;;;;;;14.37;9.53;;;16.40;58.90;;;;;;5060103;28;46357;-65
2022/09/16 09:46:22;;;;;;;16.27;8.57;;;16.60;67.90;;;;;;5063791;28;46385;-65
2022/09/16 09:48:55;;;;;;;14.90;9.13;;;16.20;60.00;;;;;;5060528;28;46389;-65
2022/09/16 09:51:32;;;;;;;15.77;9.00;;;16.40;69.70;;;;;;5050698;28;46428;-65
2022/09/16 09:54:28;;;;;;;13.20;9.33;;;15.90;60.70;;;;;;5056102;28;46429;-65
2022/09/16 09:57:26;;;;;;;11.30;6.30;;;14.80;70.50;;;;;;5046067;28;46379;-66
2022/09/16 10:00:06;;;;;;;12.50;6.63;;;14.30;62.60;;;;;;5048956;28;46467;-65
2022/09/16 10:02:38;;;;;;;10.00;6.30;;;14.00;65.20;;;;;;5049411;28;46563;-68
2022/09/16 10:05:06;;;;;;;10.23;5.80;;;13.50;66.60;;;;;;5049058;28;47151;-65
2022/09/16 10:07:37;;;;;;;11.97;6.13;;;13.50;63.60;;;;;;5045768;28;46287;-64
2022/09/16 10:10:20;;;;;;;13.60;6.00;;;13.40;66.60;;;;;;5038301;28;46648;-64
2022/09/16 10:12:46;;;;;;;9.40;5.50;;;13.50;71.40;;;;;;5048700;28;46349;-64
2022/09/16 10:15:27;;;;;;;11.20;6.90;;;13.10;71.10;;;;;;5046938;28;46423;-65
2022/09/16 10:17:54;;;;;;;12.70;6.10;;;13.20;63.00;;;;;;5055990;28;46545;-63
2022/09/16 10:20:35;;;;;;;12.60;6.37;;;13.00;73.80;;;;;;5052831;28;46392;-65
2022/09/16 10:23:19;;;;;;;10.77;5.87;;;13.00;63.30;;;;;;5057479;28;46446;-63
2022/09/16 10:25:45;;;;;;;10.40;5.70;;;13.00;63.30;;;;;;5053110;28;46601;-64
2022/09/16 10:28:23;;;;;;;11.30;6.40;;;12.80;64.10;;;;;;5049718;28;46406;-64
2022/09/16 10:30:53;;;;;;;10.77;6.60;;;12.50;74.60;;;;;;5047940;28;46444;-65
2022/09/16 10:33:33;;;;;;;11.27;6.80;;;12.60;68.40;;;;;;5048735;28;46426;-65
2022/09/16 10:36:07;;;;;;;11.90;5.47;;;12.50;65.70;;;;;;5051381;28;47027;-65
2022/09/16 10:38:41;;;;;;;8.77;4.60;;;12.30;65.90;;;;;;5052232;28;46414;-65
2022/09/16 10:41:13;;;;;;;15.20;6.00;;;12.50;78.00;;;;;;5041298;28;46792;-65
2022/09/16 10:43:49;;;;;;;9.20;5.60;;;12.40;65.80;;;;;;5054233;28;46663;-63
2022/09/16 10:46:17;;;;;;;10.53;4.90;;;12.40;65.60;;;;;;5051292;28;46649;-63
2022/09/16 10:48:44;;;;;;;15.03;5.43;;;12.60;65.70;;;;;;5051645;28;46432;-64
2022/09/16 10:51:22;;;;;;;8.03;4.87;;;12.50;65.90;;;;;;5056863;28;46446;-63
2022/09/16 10:53:54;;;;;;;8.90;6.00;;;12.40;65.70;;;;;;5052147;28;46401;-63
2022/09/16 10:56:23;;;;;;;12.00;5.90;;;12.60;65.80;;;;;;5056087;28;46394;-65
2022/09/16 10:59:05;;;;;;;10.07;6.20;;;12.70;65.00;;;;;;5050375;28;46276;-63
2022/09/16 11:01:36;;;;;;;10.77;6.20;;;13.00;70.90;;;;;;5051286;28;46762;-64
2022/09/16 11:04:15;;;;;;;11.70;6.40;;;12.80;64.50;;;;;;5049610;28;46347;-64
2022/09/16 11:06:58;;;;;;;16.53;7.27;;;12.70;65.10;;;;;;5047121;28;46679;-65
2022/09/16 11:09:45;;;;;;;17.33;7.30;;;12.70;65.20;;;;;;5051183;28;46436;-64
2022/09/16 11:12:27;;;;;;;9.77;5.30;;;12.80;64.80;;;;;;5047342;28;46825;-65
2022/09/16 11:15:13;;;;;;;13.27;6.10;;;12.90;74.00;;;;;;5047069;28;46497;-64
2022/09/16 11:17:46;;;;;;;8.27;4.13;;;;;;;;;;5052025;28;46425;-64
2022/09/16 11:20:27;;;;;;;8.53;4.20;;;12.90;64.60;;;;;;5049265;28;45809;-64
2022/09/16 11:23:15;;;;;;;9.33;4.00;;;12.90;64.20;;;;;;5047534;28;46151;-65
2022/09/16 11:26:14;;;;;;;6.97;4.10;;;13.20;63.80;;;;;;5036546;28;46503;-63
2022/09/16 11:28:57;;;;;;;8.30;4.20;;;12.80;64.60;;;;;;5046726;28;46402;-64
2022/09/16 11:31:23;;;;;;;10.33;4.40;;;;;;;;;;5049401;28;45846;-65
2022/09/16 11:33:49;;;;;;;8.77;5.07;;;;;;;;;;5052126;28;46473;-65
2022/09/16 11:36:34;;;;;;;11.67;6.13;;;12.90;63.60;;;;;;5049566;28;45935;-64
2022/09/16 11:39:30;;;;;;;11.63;5.00;;;13.10;63.70;;;;;;5050025;28;46601;-64
2022/09/16 11:42:23;;;;;;;10.10;5.87;;;13.10;63.80;;;;;;5049587;28;45836;-64
2022/09/16 11:44:52;;;;;;;10.30;5.80;;;13.00;63.60;;;;;;5049460;28;46483;-64
2022/09/16 11:47:41;;;;;;;12.93;5.37;;;13.10;75.90;;;;;;5048724;28;46292;-66
2022/09/16 11:50:19;;;;;;;8.50;5.57;;;13.10;64.90;;;;;;5045840;28;46245;-64
2022/09/16 11:53:13;;;;;;;8.17;4.40;;;13.10;64.80;;;;;;5054656;28;46278;-63
2022/09/16 11:55:53;;;;;;;13.63;5.13;;;13.10;64.80;;;;;;5047084;28;46444;-64
2022/09/16 11:58:25;;;;;;;12.37;6.43;;;13.00;64.90;;;;;;5054377;28;46459;-67
2022/09/16 12:00:55;;;;;;;6.43;4.47;;;13.00;65.00;;;;;;5053264;28;46999;-64
2022/09/16 12:03:35;;;;;;;6.37;4.27;;;13.10;64.60;;;;;;5065392;28;46439;-63
2022/09/16 12:06:10;;;;;;;7.90;5.23;;;13.00;64.50;;;;;;5052847;28;45803;-64
2022/09/16 12:08:53;;;;;;;8.00;5.57;;;12.90;64.60;;;;;;5047042;28;46423;-64
2022/09/16 12:11:26;;;;;;;6.57;4.33;;;13.00;64.50;;;;;;5062955;27;48143;-65
2022/09/16 12:14:04;;;;;;;8.73;5.20;;;13.10;64.20;;;;;;5049264;28;46343;-64
2022/09/16 12:17:00;;;;;;;9.07;5.13;;;13.30;63.80;;;;;;5045936;28;46437;-63
2022/09/16 12:19:37;;;;;;;10.03;5.50;;;13.50;63.50;;;;;;5048933;28;46464;-64
2022/09/16 12:22:12;;;;;;;9.13;5.10;;;13.70;62.80;;;;;;5048648;28;46479;-65
2022/09/16 12:24:54;;;;;;;9.33;5.10;;;13.90;62.30;;;;;;5045679;28;46565;-65
2022/09/16 12:27:28;;;;;;;5.87;3.53;;;14.00;61.70;;;;;;5048027;28;46478;-64
2022/09/16 12:30:04;;;;;;;10.70;3.90;;;14.20;61.80;;;;;;5047201;28;46564;-64
2022/09/16 12:32:42;;;;;;;14.87;6.87;;;14.30;61.20;;;;;;5048330;28;46127;-63
2022/09/16 12:35:38;;;;;;;6.97;3.90;;;14.50;60.80;;;;;;5047868;28;46501;-64
2022/09/16 12:38:10;;;;;;;6.33;3.30;;;14.70;60.40;;;;;;5047101;28;46437;-63
2022/09/16 12:40:59;;;;;;;5.53;3.30;;;14.80;60.10;;;;;;5050157;28;46445;-63
2022/09/16 12:43:46;;;;;;;5.20;3.10;;;14.70;60.10;;;;;;5047155;28;46507;-63
2022/09/16 12:46:48;;;;;;;6.03;4.00;;;14.50;60.80;;;;;;5054096;28;46398;-64
2022/09/16 12:49:20;;;;;;;5.00;2.50;;;14.60;60.60;;;;;;5053549;28;46444;-63
2022/09/16 12:51:52;;;;;;;5.73;2.80;;;14.60;59.90;;;;;;5047730;28;46506;-64
2022/09/16 12:54:31;;;;;;;3.90;2.40;;;14.60;59.80;;;;;;5049790;28;46987;-64
2022/09/16 12:57:21;;;;;;;7.47;2.90;;;14.70;59.70;;;;;;5043534;28;46350;-64
2022/09/16 12:59:59;;;;;;;5.43;3.10;;;15.00;58.80;;;;;;5041940;28;46430;-64
2022/09/16 13:02:37;;;;;;;8.70;2.90;;;15.00;57.70;;;;;;5048471;28;45854;-64
2022/09/16 13:05:16;;;;;;;6.87;4.30;;;14.90;57.50;;;;;;5052862;28;48876;-64
2022/09/16 13:07:42;;;;;;;6.63;3.23;;;15.00;57.00;;;;;;5051997;28;46403;-63
2022/09/16 13:10:21;;;;;;;5.70;3.10;;;15.10;57.00;;;;;;5049619;28;46540;-62
2022/09/16 13:12:56;;;;;;;5.63;3.17;;;15.00;56.20;;;;;;5052609;28;46382;-63
2022/09/16 13:15:29;;;;;;;4.67;3.37;;;15.30;56.50;;;;;;5048583;28;47039;-64
2022/09/16 13:18:06;;;;;;;6.03;3.30;;;15.60;55.50;;;;;;5050621;28;46359;-64
2022/09/16 13:20:39;;;;;;;5.00;2.83;;;15.50;54.90;;;;;;5053768;28;46528;-64
2022/09/16 13:23:25;;;;;;;7.70;3.80;;;15.50;55.50;;;;;;5052737;28;45970;-64
2022/09/16 13:26:08;;;;;;;9.97;4.20;;;15.30;55.20;;;;;;5046881;28;47602;-63
2022/09/16 13:28:44;;;;;;;5.77;3.37;;;15.50;55.20;;;;;;5048251;28;46408;-65